Time;durP1;ratioP1;P1;durP2;ratioP2;P2;SDS_P1;SDS_P2;PMS_P1;PMS_P2;Temp;Humidity;BMP_temperature;BMP_pressure;BME280_temperature;BME280_humidity;BME280_pressure;Samples;Min_cycle;Max_cycle;Signal;HPM_P1;HPM_P2
2021/12/14 00:00:24;;;;;;;6.60;5.43;;;16.10;83.30;;;;;;5095401;28;20033;-76
2021/12/14 00:02:51;;;;;;;5.57;5.05;;;16.00;83.20;;;;;;5094019;28;20016;-71
2021/12/14 00:05:19;;;;;;;5.60;5.10;;;16.10;83.10;;;;;;5094026;28;20035;-72
2021/12/14 00:07:44;;;;;;;5.75;5.25;;;16.00;82.90;;;;;;5095303;28;20464;-72
2021/12/14 00:10:42;;;;;;;5.82;5.30;;;16.00;82.90;;;;;;5093982;28;20054;-74
2021/12/14 00:13:23;;;;;;;5.77;5.00;;;16.00;83.10;;;;;;5094290;28;20098;-74
2021/12/14 00:15:50;;;;;;;5.03;4.60;;;16.10;83.00;;;;;;5086172;28;20347;-73
2021/12/14 00:18:16;;;;;;;5.53;5.03;;;16.10;82.80;;;;;;5074600;28;20025;-75
2021/12/14 00:20:42;;;;;;;5.65;4.07;;;16.10;83.40;;;;;;5090974;28;20042;-72
2021/12/14 00:25:51;;;;;;;6.22;5.32;;;16.10;82.90;;;;;;5114343;27;20078;-72
2021/12/14 00:28:26;;;;;;;7.07;6.15;;;16.00;82.80;;;;;;5115123;28;20024;-73
2021/12/14 00:30:54;;;;;;;7.15;6.15;;;16.10;82.50;;;;;;5115124;28;20016;-74
2021/12/14 00:33:23;;;;;;;6.63;6.03;;;16.00;82.40;;;;;;5114943;28;20123;-72
2021/12/14 00:35:49;;;;;;;9.60;6.20;;;16.00;82.50;;;;;;5115279;28;20019;-73
2021/12/14 00:38:16;;;;;;;8.65;6.55;;;16.00;82.60;;;;;;5115130;28;20016;-71
2021/12/14 00:40:47;;;;;;;7.72;6.72;;;15.90;82.60;;;;;;5114560;28;20027;-72
2021/12/14 00:43:13;;;;;;;6.85;6.15;;;15.80;82.50;;;;;;5115407;28;20027;-73
2021/12/14 00:45:42;;;;;;;7.20;6.50;;;15.80;82.60;;;;;;5115804;28;20038;-73
2021/12/14 00:48:09;;;;;;;7.47;6.78;;;15.80;82.70;;;;;;5116015;28;20048;-76
2021/12/14 00:50:37;;;;;;;6.95;6.30;;;15.80;82.70;;;;;;5114611;27;20016;-71
2021/12/14 00:53:03;;;;;;;6.68;6.07;;;15.70;82.80;;;;;;5114719;28;20024;-75
2021/12/14 00:55:36;;;;;;;7.22;6.43;;;15.70;82.90;;;;;;5114401;28;20019;-72
2021/12/14 00:58:02;;;;;;;;;;;15.80;82.90;;;;;;5115264;28;20011;-72
2021/12/14 01:00:34;;;;;;;6.72;6.00;;;15.90;82.60;;;;;;5114482;28;19927;-75
2021/12/14 01:03:03;;;;;;;6.90;5.97;;;15.90;82.40;;;;;;5114634;28;20047;-72
2021/12/14 01:05:34;;;;;;;6.60;5.90;;;15.80;82.40;;;;;;5114520;28;20104;-73
2021/12/14 01:08:01;;;;;;;6.85;6.10;;;15.70;82.40;;;;;;5114647;28;20034;-72
2021/12/14 01:10:49;;;;;;;6.32;5.72;;;15.80;82.70;;;;;;5113766;28;20470;-72
2021/12/14 01:13:16;;;;;;;6.72;5.90;;;15.70;82.50;;;;;;5113989;28;20042;-72
2021/12/14 01:16:02;;;;;;;7.22;6.50;;;15.80;82.50;;;;;;5114179;28;20024;-71
2021/12/14 01:18:46;;;;;;;7.55;5.85;;;15.80;82.50;;;;;;5114260;28;20027;-72
2021/12/14 01:21:30;;;;;;;6.57;5.70;;;15.70;82.50;;;;;;5114047;28;20069;-72
2021/12/14 01:24:06;;;;;;;6.15;5.55;;;15.70;82.50;;;;;;5113967;28;20012;-72
2021/12/14 01:26:33;;;;;;;6.60;6.00;;;15.70;82.70;;;;;;5113973;28;20385;-72
2021/12/14 01:29:01;;;;;;;6.93;6.25;;;15.70;82.70;;;;;;5114184;27;20012;-72
2021/12/14 01:31:35;;;;;;;6.55;5.95;;;15.70;82.70;;;;;;5113892;28;20024;-72
2021/12/14 01:34:06;;;;;;;8.07;6.63;;;15.70;82.90;;;;;;5114025;28;20385;-72
2021/12/14 01:41:53;;;;;;;6.47;5.88;;;15.70;82.70;;;;;;5113950;28;20521;-71
2021/12/14 01:44:19;;;;;;;6.35;5.63;;;15.70;82.80;;;;;;5113918;28;20469;-73
2021/12/14 01:46:48;;;;;;;6.25;5.65;;;15.70;82.90;;;;;;5113814;28;20016;-72
2021/12/14 01:49:16;;;;;;;6.63;5.95;;;15.70;82.70;;;;;;5113874;28;20032;-72
2021/12/14 01:51:46;;;;;;;6.68;5.97;;;15.70;82.60;;;;;;5113844;28;20027;-73
2021/12/14 01:54:16;;;;;;;6.68;5.97;;;15.70;82.50;;;;;;5114144;28;20050;-75
2021/12/14 01:56:42;;;;;;;7.32;6.43;;;15.70;82.50;;;;;;5113756;28;20020;-75
2021/12/14 01:59:24;;;;;;;7.20;6.50;;;15.70;82.60;;;;;;5113937;28;20019;-75
2021/12/14 02:02:07;;;;;;;6.53;5.93;;;15.70;82.80;;;;;;5113574;28;20102;-75
2021/12/14 02:04:32;;;;;;;6.78;6.10;;;15.70;82.70;;;;;;5113668;28;20023;-75
2021/12/14 02:07:02;;;;;;;9.07;6.50;;;15.60;82.60;;;;;;5113384;28;20031;-75
2021/12/14 02:09:30;;;;;;;6.97;6.20;;;15.60;82.60;;;;;;5113504;28;20023;-75
2021/12/14 02:12:02;;;;;;;7.90;6.32;;;15.70;82.60;;;;;;5113532;28;20030;-75
2021/12/14 02:14:28;;;;;;;7.32;6.57;;;15.60;83.40;;;;;;5113382;28;20043;-75
2021/12/14 02:17:00;;;;;;;7.53;6.18;;;15.60;82.70;;;;;;5113477;28;20099;-74
2021/12/14 02:19:27;;;;;;;7.68;6.88;;;15.60;82.70;;;;;;5113535;28;20023;-75
2021/12/14 02:21:55;;;;;;;6.20;5.60;;;15.50;83.00;;;;;;5112923;28;20468;-75
2021/12/14 02:24:22;;;;;;;8.93;6.90;;;15.60;83.10;;;;;;5113317;28;20415;-75
2021/12/14 02:26:51;;;;;;;5.90;5.30;;;15.50;82.80;;;;;;5113400;28;20468;-75
2021/12/14 02:29:31;;;;;;;6.95;6.22;;;15.60;83.00;;;;;;5113380;28;20050;-74
2021/12/14 02:32:20;;;;;;;7.18;6.47;;;15.60;83.00;;;;;;5113385;28;20028;-75
2021/12/14 02:34:47;;;;;;;7.30;6.60;;;15.60;82.90;;;;;;5113243;28;20074;-75
2021/12/14 02:37:15;;;;;;;7.60;6.80;;;15.60;82.90;;;;;;5112976;28;20465;-75
2021/12/14 02:42:18;;;;;;;8.63;7.05;;;15.60;82.90;;;;;;5113418;28;20023;-75
2021/12/14 02:44:50;;;;;;;8.02;6.93;;;15.60;82.70;;;;;;5113300;28;20074;-75
2021/12/14 02:47:17;;;;;;;6.93;6.22;;;15.50;82.80;;;;;;5113056;28;20373;-75
2021/12/14 02:49:44;;;;;;;6.55;5.93;;;15.60;82.80;;;;;;5113194;28;20028;-75
2021/12/14 02:52:20;;;;;;;7.85;6.97;;;15.60;83.00;;;;;;5112854;28;20511;-75
2021/12/14 02:54:52;;;;;;;6.85;6.25;;;15.50;82.70;;;;;;5113202;28;20019;-75
2021/12/14 02:57:23;;;;;;;7.88;7.07;;;15.50;82.80;;;;;;5113099;28;20468;-75
2021/12/14 02:59:52;;;;;;;8.10;6.45;;;15.50;82.70;;;;;;5112998;28;20016;-75
2021/12/14 03:02:22;;;;;;;6.38;5.68;;;15.50;82.80;;;;;;5113152;28;20027;-72
2021/12/14 03:04:51;;;;;;;8.07;6.75;;;15.60;83.20;;;;;;5112773;28;20015;-72
2021/12/14 03:07:22;;;;;;;8.45;7.18;;;15.60;82.90;;;;;;5113047;28;20031;-72
2021/12/14 03:12:40;;;;;;;7.35;6.75;;;15.50;82.50;;;;;;5113517;28;20043;-73
2021/12/14 03:15:45;;;;;;;9.45;7.18;;;15.50;82.70;;;;;;5116533;28;20031;-71
2021/12/14 03:18:14;;;;;;;8.68;7.68;;;15.50;82.90;;;;;;5106578;28;20035;-72
2021/12/14 03:20:58;;;;;;;6.40;5.80;;;15.50;82.70;;;;;;5114884;28;20039;-72
2021/12/14 03:23:34;;;;;;;7.57;6.90;;;15.50;83.10;;;;;;5116421;27;20469;-71
2021/12/14 03:26:04;;;;;;;8.13;7.32;;;15.50;82.60;;;;;;5116572;28;20020;-72
2021/12/14 03:28:31;;;;;;;7.90;7.13;;;15.50;82.60;;;;;;5116333;28;20028;-72
2021/12/14 03:31:11;;;;;;;7.97;7.20;;;15.50;82.80;;;;;;5116291;28;20067;-73
2021/12/14 03:33:43;;;;;;;6.75;6.07;;;15.50;83.10;;;;;;5116162;28;20107;-72
2021/12/14 03:36:12;;;;;;;6.75;6.05;;;15.50;83.20;;;;;;5116428;27;20031;-72
2021/12/14 03:39:17;;;;;;;7.25;6.60;;;15.60;83.40;;;;;;5116049;28;20020;-71
2021/12/14 03:41:55;;;;;;;7.15;6.55;;;15.50;83.10;;;;;;5115739;28;20039;-72
2021/12/14 03:44:25;;;;;;;8.00;7.20;;;15.50;83.10;;;;;;5116009;28;20059;-72
2021/12/14 03:46:55;;;;;;;7.53;6.82;;;15.50;82.80;;;;;;5116165;28;20080;-73
2021/12/14 03:49:24;;;;;;;8.18;7.38;;;15.50;82.80;;;;;;5115508;28;20027;-73
2021/12/14 03:51:51;;;;;;;9.85;8.85;;;15.50;83.00;;;;;;5115783;28;20028;-72
2021/12/14 03:54:19;;;;;;;9.10;8.30;;;15.50;82.60;;;;;;5115796;28;20411;-71
2021/12/14 03:56:45;;;;;;;9.95;9.05;;;15.50;82.40;;;;;;5115877;28;20015;-71
2021/12/14 03:59:11;;;;;;;10.40;9.02;;;15.40;82.70;;;;;;5115911;28;20468;-72
2021/12/14 04:01:40;;;;;;;9.88;8.93;;;15.40;82.60;;;;;;5115828;28;20019;-71
2021/12/14 04:04:21;;;;;;;11.88;10.45;;;15.40;82.70;;;;;;5115297;27;20023;-72
2021/12/14 04:06:53;;;;;;;10.93;9.77;;;15.30;82.80;;;;;;5115690;28;20015;-71
2021/12/14 04:09:23;;;;;;;12.05;9.98;;;15.30;82.80;;;;;;5115494;28;20504;-72
2021/12/14 04:11:49;;;;;;;10.05;8.63;;;15.40;83.00;;;;;;5115478;28;20097;-72
2021/12/14 04:14:16;;;;;;;11.63;10.20;;;15.30;83.20;;;;;;5115331;28;20462;-71
2021/12/14 04:16:45;;;;;;;11.27;10.23;;;15.30;83.10;;;;;;5107385;28;20048;-72
2021/12/14 04:19:14;;;;;;;12.38;11.07;;;15.30;83.10;;;;;;5090796;28;20077;-71
2021/12/14 04:21:45;;;;;;;11.63;10.45;;;15.30;82.90;;;;;;5094272;28;20021;-72
2021/12/14 04:24:17;;;;;;;13.73;12.32;;;15.30;82.90;;;;;;5094816;28;20063;-72
2021/12/14 04:26:45;;;;;;;13.98;12.10;;;15.20;82.70;;;;;;5095440;28;20039;-74
2021/12/14 04:29:12;;;;;;;13.75;12.35;;;15.20;82.70;;;;;;5094804;28;20087;-74
2021/12/14 04:31:39;;;;;;;15.13;13.07;;;15.20;83.00;;;;;;5094596;28;20051;-74
2021/12/14 04:34:05;;;;;;;13.80;12.38;;;15.20;83.00;;;;;;5094558;28;20054;-74
2021/12/14 04:36:31;;;;;;;15.68;14.07;;;15.30;82.80;;;;;;5094902;28;20470;-74
2021/12/14 04:39:16;;;;;;;15.77;13.07;;;15.30;82.80;;;;;;5094634;28;20042;-75
2021/12/14 04:53:02;;;;;;;14.32;12.25;;;15.20;82.80;;;;;;5094501;28;20118;-74
2021/12/14 04:55:27;;;;;;;47.25;16.98;;;15.20;83.10;;;;;;5093027;28;20016;-75
2021/12/14 04:57:53;;;;;;;15.63;12.90;;;15.30;83.10;;;;;;5094059;28;20028;-73
2021/12/14 05:00:44;;;;;;;14.93;13.32;;;15.70;80.20;;;;;;5094310;28;20435;-73
2021/12/14 05:03:21;;;;;;;13.98;12.50;;;15.80;79.10;;;;;;5093042;28;20024;-73
2021/12/14 05:05:50;;;;;;;14.75;11.98;;;15.90;78.40;;;;;;5094081;28;20066;-73
2021/12/14 05:10:57;;;;;;;13.52;11.43;;;16.00;77.90;;;;;;5091511;28;20024;-73
2021/12/14 05:13:28;;;;;;;13.60;12.00;;;16.00;77.60;;;;;;5085427;28;20116;-74
2021/12/14 05:15:55;;;;;;;17.27;14.75;;;16.00;77.30;;;;;;5077480;28;20107;-73
2021/12/14 05:18:21;;;;;;;18.30;13.30;;;16.00;77.40;;;;;;5084344;28;20024;-73
2021/12/14 05:20:49;;;;;;;16.85;14.07;;;16.00;77.40;;;;;;5079218;28;20028;-74
2021/12/14 05:23:22;;;;;;;15.93;13.63;;;16.00;77.30;;;;;;5087776;28;20096;-73
2021/12/14 05:25:48;;;;;;;17.83;15.38;;;16.00;78.20;;;;;;5084666;28;20020;-73
2021/12/14 05:28:16;;;;;;;16.95;14.68;;;16.00;77.30;;;;;;5085788;28;20107;-73
2021/12/14 05:30:44;;;;;;;19.67;15.25;;;16.00;76.90;;;;;;5079216;28;20028;-73
2021/12/14 05:33:17;;;;;;;17.95;15.93;;;16.00;77.40;;;;;;5083521;28;20081;-73
2021/12/14 05:35:46;;;;;;;18.92;15.48;;;16.00;77.50;;;;;;5084101;28;20534;-73
2021/12/14 05:38:18;;;;;;;17.98;15.10;;;16.00;77.40;;;;;;5082524;28;20016;-73
2021/12/14 05:43:31;;;;;;;19.33;15.90;;;16.00;77.50;;;;;;5069632;28;20036;-73
2021/12/14 05:46:05;;;;;;;19.35;16.30;;;16.00;77.50;;;;;;5072514;28;20028;-73
2021/12/14 05:48:34;;;;;;;20.38;15.73;;;16.00;77.50;;;;;;5073842;28;20039;-74
2021/12/14 05:51:09;;;;;;;18.23;15.75;;;16.00;77.60;;;;;;5073411;28;20031;-74
2021/12/14 05:53:41;;;;;;;18.23;15.52;;;16.00;77.70;;;;;;5071999;28;20028;-73
2021/12/14 05:56:16;;;;;;;19.20;15.30;;;16.00;77.60;;;;;;5073382;28;20048;-73
2021/12/14 05:58:42;;;;;;;22.77;17.58;;;16.00;77.70;;;;;;5073400;28;20029;-73
2021/12/14 06:01:11;;;;;;;21.55;17.98;;;16.00;77.50;;;;;;5074290;28;20078;-73
2021/12/14 06:03:41;;;;;;;21.42;17.30;;;15.90;77.80;;;;;;5084609;28;20066;-73
2021/12/14 06:06:17;;;;;;;20.08;17.55;;;15.80;77.80;;;;;;5094089;28;20103;-73
2021/12/14 06:08:43;;;;;;;24.08;18.15;;;15.90;77.90;;;;;;5093570;28;20024;-73
2021/12/14 06:11:18;;;;;;;19.23;15.82;;;15.90;77.70;;;;;;5093098;28;20028;-73
2021/12/14 06:13:45;;;;;;;19.75;16.48;;;15.90;78.00;;;;;;5092570;28;20131;-73
2021/12/14 06:16:29;;;;;;;23.15;17.52;;;15.90;77.90;;;;;;5092786;28;20130;-73
2021/12/14 06:19:13;;;;;;;23.88;18.67;;;15.90;78.10;;;;;;5093579;28;20111;-74
2021/12/14 06:21:41;;;;;;;21.25;16.65;;;15.80;78.10;;;;;;5092680;28;20020;-74
2021/12/14 06:24:09;;;;;;;20.77;16.77;;;15.90;78.10;;;;;;5093136;28;20140;-75
2021/12/14 06:26:38;;;;;;;21.63;17.95;;;15.90;78.10;;;;;;5081909;28;20028;-76
2021/12/14 06:29:08;;;;;;;23.48;19.20;;;15.90;78.00;;;;;;5082564;28;20052;-76
2021/12/14 06:31:34;;;;;;;25.58;19.88;;;15.80;78.10;;;;;;5078424;28;20021;-71
2021/12/14 06:34:23;;;;;;;24.58;20.58;;;15.30;80.20;;;;;;5079422;28;20055;-74
2021/12/14 06:37:06;;;;;;;26.15;21.30;;;14.90;81.70;;;;;;5082637;28;20100;-73
2021/12/14 06:40:10;;;;;;;27.23;21.63;;;14.60;82.70;;;;;;5102950;28;20032;-74
2021/12/14 06:42:46;;;;;;;24.58;19.55;;;14.50;83.80;;;;;;5077279;28;20040;-72
2021/12/14 06:45:19;;;;;;;19.05;14.25;;;14.90;83.40;;;;;;5079963;28;20035;-73
2021/12/14 06:47:46;;;;;;;16.92;13.35;;;15.00;83.80;;;;;;5079234;28;20020;-75
2021/12/14 06:50:17;;;;;;;17.70;13.45;;;15.10;84.00;;;;;;5088876;28;20031;-75
2021/12/14 06:52:43;;;;;;;18.98;16.73;;;15.20;84.50;;;;;;5098212;28;20090;-74
2021/12/14 06:55:21;;;;;;;25.05;20.40;;;15.20;83.90;;;;;;5086247;28;20028;-73
2021/12/14 06:57:46;;;;;;;30.13;21.70;;;15.10;83.40;;;;;;5086946;28;21159;-72
2021/12/14 07:00:12;;;;;;;28.80;21.55;;;15.00;83.10;;;;;;5091208;28;20024;-72
2021/12/14 07:02:45;;;;;;;28.00;22.52;;;15.00;83.40;;;;;;5083084;28;20028;-71
2021/12/14 07:05:38;;;;;;;;;;;14.80;83.40;;;;;;5086272;28;20017;-71
2021/12/14 07:08:12;;;;;;;17.58;13.18;;;15.10;84.20;;;;;;5078709;28;19909;-74
2021/12/14 07:10:41;;;;;;;23.23;17.65;;;15.20;84.90;;;;;;5075684;28;20043;-69
2021/12/14 07:13:37;;;;;;;23.17;18.52;;;15.30;84.40;;;;;;5057339;28;20043;-72
2021/12/14 07:16:19;;;;;;;22.30;15.70;;;15.30;83.90;;;;;;5074708;28;20041;-71
2021/12/14 07:18:44;;;;;;;19.40;14.50;;;15.40;84.00;;;;;;5078572;28;20027;-75
2021/12/14 07:21:10;;;;;;;14.63;10.40;;;15.50;84.00;;;;;;5084287;28;20059;-73
2021/12/14 07:23:37;;;;;;;12.00;9.32;;;15.60;84.30;;;;;;5095852;28;20086;-72
2021/12/14 07:26:05;;;;;;;12.13;8.82;;;15.60;84.40;;;;;;5098979;28;20074;-73
2021/12/14 07:28:45;;;;;;;12.73;7.85;;;15.70;84.40;;;;;;5083483;28;20037;-71
2021/12/14 07:31:23;;;;;;;18.10;13.63;;;15.70;84.40;;;;;;5094191;28;20106;-72
2021/12/14 07:33:55;;;;;;;12.30;7.80;;;15.80;84.20;;;;;;5094719;28;20036;-72
2021/12/14 07:36:32;;;;;;;;;;;15.90;84.20;;;;;;5095822;28;20042;-75
2021/12/14 07:39:07;;;;;;;14.13;7.32;;;16.10;84.30;;;;;;5095161;28;19904;-72
2021/12/14 07:41:35;;;;;;;13.10;9.85;;;16.10;84.00;;;;;;5093660;28;20024;-73
2021/12/14 07:44:04;;;;;;;16.27;13.60;;;16.10;83.80;;;;;;5078381;28;20514;-72
2021/12/14 07:46:41;;;;;;;20.08;14.68;;;16.00;83.40;;;;;;5091161;28;20024;-74
2021/12/14 07:49:29;;;;;;;17.30;8.73;;;16.00;83.30;;;;;;5091116;28;20105;-72
2021/12/14 07:52:02;;;;;;;10.82;7.15;;;16.10;83.70;;;;;;5074397;28;20039;-73
2021/12/14 07:54:39;;;;;;;11.25;8.13;;;16.20;84.00;;;;;;5074930;28;20486;-73
2021/12/14 07:57:09;;;;;;;22.73;16.88;;;16.10;84.00;;;;;;5079527;28;20481;-76
2021/12/14 07:59:44;;;;;;;12.70;9.15;;;16.20;83.40;;;;;;5077835;28;20160;-74
2021/12/14 08:02:13;;;;;;;13.48;8.20;;;16.20;83.90;;;;;;5094988;28;20039;-74
2021/12/14 08:04:41;;;;;;;10.10;8.20;;;16.20;84.40;;;;;;5082821;28;20524;-72
2021/12/14 08:07:07;;;;;;;16.27;13.73;;;16.20;83.70;;;;;;5089716;28;20032;-71
2021/12/14 08:09:44;;;;;;;14.13;10.75;;;16.20;84.00;;;;;;5075181;28;20020;-75
2021/12/14 08:12:10;;;;;;;11.63;9.05;;;16.20;83.50;;;;;;5097882;28;20107;-72
2021/12/14 08:14:36;;;;;;;12.82;9.32;;;16.30;83.50;;;;;;5097735;28;20110;-73
2021/12/14 08:17:08;;;;;;;9.85;8.00;;;16.30;83.50;;;;;;5086992;28;20116;-76
2021/12/14 08:19:42;;;;;;;9.73;7.53;;;16.30;83.50;;;;;;5084767;28;20034;-78
2021/12/14 08:22:26;;;;;;;11.05;8.68;;;16.40;83.40;;;;;;5094751;28;20020;-78
2021/12/14 08:24:51;;;;;;;11.13;8.95;;;16.40;83.10;;;;;;5083642;28;20036;-78
2021/12/14 08:27:23;;;;;;;17.17;12.82;;;16.50;82.80;;;;;;5091591;28;20028;-76
2021/12/14 08:29:52;;;;;;;11.30;9.43;;;16.50;82.60;;;;;;5082429;28;20502;-77
2021/12/14 08:32:23;;;;;;;12.43;9.70;;;16.50;82.40;;;;;;5085850;28;20424;-79
2021/12/14 08:34:51;;;;;;;16.88;13.38;;;16.50;82.30;;;;;;5080333;28;20094;-78
2021/12/14 08:37:27;;;;;;;15.18;12.45;;;16.50;81.90;;;;;;5083360;28;20048;-71
2021/12/14 08:40:14;;;;;;;16.83;11.48;;;16.50;82.10;;;;;;5088276;28;20137;-72
2021/12/14 08:43:02;;;;;;;17.67;13.65;;;16.60;81.80;;;;;;5076232;28;20028;-72
2021/12/14 08:45:33;;;;;;;18.27;15.18;;;16.60;81.40;;;;;;5078556;28;20105;-69
2021/12/14 08:48:02;;;;;;;26.90;20.63;;;16.60;81.00;;;;;;5086601;28;20028;-72
2021/12/14 08:50:30;;;;;;;14.90;11.98;;;16.60;80.80;;;;;;5092243;28;20103;-75
2021/12/14 08:52:56;;;;;;;14.93;11.52;;;16.60;81.00;;;;;;5088501;28;20035;-75
2021/12/14 08:55:25;;;;;;;17.02;10.88;;;16.70;81.00;;;;;;5080195;28;20024;-76
2021/12/14 08:57:50;;;;;;;12.80;10.63;;;16.70;80.80;;;;;;5075111;28;20085;-75
2021/12/14 09:00:28;;;;;;;13.23;10.43;;;16.70;80.60;;;;;;5088019;28;20027;-72
2021/12/14 09:02:59;;;;;;;16.63;11.07;;;16.70;80.70;;;;;;5092636;28;20099;-74
2021/12/14 09:05:33;;;;;;;13.75;9.55;;;16.80;80.60;;;;;;5079705;28;20013;-76
2021/12/14 09:08:00;;;;;;;14.40;10.00;;;16.80;80.60;;;;;;5072195;28;20124;-69
2021/12/14 09:10:29;;;;;;;10.98;9.18;;;16.90;80.50;;;;;;5071412;28;20386;-70
2021/12/14 09:12:59;;;;;;;12.45;10.57;;;16.80;80.50;;;;;;5072600;28;20032;-69
2021/12/14 09:15:32;;;;;;;15.57;9.75;;;16.80;80.40;;;;;;5071712;28;20085;-73
2021/12/14 09:17:59;;;;;;;12.75;10.25;;;16.80;80.50;;;;;;5074811;28;20125;-74
2021/12/14 09:20:33;;;;;;;11.15;8.20;;;16.80;80.40;;;;;;5071947;28;20032;-73
2021/12/14 09:23:07;;;;;;;11.48;9.13;;;16.80;80.80;;;;;;5072409;28;20038;-70
2021/12/14 09:25:33;;;;;;;11.65;8.25;;;16.80;80.70;;;;;;5072144;28;20428;-70
2021/12/14 09:28:01;;;;;;;8.60;6.85;;;16.90;80.80;;;;;;5084576;28;20032;-74
2021/12/14 09:30:34;;;;;;;9.43;7.65;;;16.90;80.90;;;;;;5089666;28;20396;-74
2021/12/14 09:33:00;;;;;;;9.82;7.85;;;16.90;80.80;;;;;;5091971;28;20047;-74
2021/12/14 09:35:30;;;;;;;14.30;10.45;;;17.00;80.70;;;;;;5091108;28;20028;-74
2021/12/14 09:37:57;;;;;;;9.52;8.63;;;17.00;80.60;;;;;;5080051;28;20028;-74
2021/12/14 09:40:43;;;;;;;9.27;7.85;;;17.00;80.60;;;;;;5071633;28;20119;-75
2021/12/14 09:43:09;;;;;;;11.68;9.82;;;17.00;80.70;;;;;;5071833;28;20016;-71
2021/12/14 09:45:43;;;;;;;13.18;9.45;;;17.00;80.30;;;;;;5078632;28;20512;-72
2021/12/14 09:48:14;;;;;;;15.43;10.13;;;17.00;80.50;;;;;;5085763;28;20121;-72
2021/12/14 09:50:42;;;;;;;20.83;16.92;;;17.10;80.60;;;;;;5091821;28;20027;-73
2021/12/14 09:53:12;;;;;;;27.45;23.30;;;16.90;79.80;;;;;;5091051;28;20105;-71
2021/12/14 09:55:41;;;;;;;26.65;20.33;;;16.50;78.90;;;;;;5084093;28;20036;-71
2021/12/14 09:58:14;;;;;;;31.35;24.13;;;16.40;80.00;;;;;;5075447;28;20465;-69
2021/12/14 10:01:17;;;;;;;23.85;20.17;;;16.50;79.80;;;;;;5093950;28;20024;-70
2021/12/14 10:03:46;;;;;;;21.20;17.45;;;16.60;80.30;;;;;;5090489;28;20020;-71
2021/12/14 10:06:16;;;;;;;26.42;19.95;;;16.60;80.20;;;;;;5090391;28;20038;-73
2021/12/14 10:08:47;;;;;;;23.90;16.10;;;16.60;80.60;;;;;;5090845;28;20024;-73
2021/12/14 10:11:25;;;;;;;22.80;17.25;;;16.60;80.90;;;;;;5090296;28;20067;-72
2021/12/14 10:13:55;;;;;;;14.77;11.38;;;16.60;80.80;;;;;;5089686;28;20044;-75
2021/12/14 10:16:21;;;;;;;18.20;14.02;;;16.70;81.20;;;;;;5090688;28;20432;-82
2021/12/14 10:18:56;;;;;;;18.73;14.05;;;16.60;80.90;;;;;;5097106;28;20414;-79
2021/12/14 10:21:29;;;;;;;18.95;12.18;;;16.70;81.20;;;;;;5094885;28;20409;-81
2021/12/14 10:23:59;;;;;;;10.73;7.25;;;16.60;81.00;;;;;;5077265;28;20385;-74
2021/12/14 10:26:27;;;;;;;15.55;8.93;;;16.80;81.80;;;;;;5075326;28;20023;-77
2021/12/14 10:28:56;;;;;;;10.85;8.88;;;16.80;81.40;;;;;;5075442;28;20019;-76
2021/12/14 10:31:40;;;;;;;9.98;6.40;;;16.80;81.50;;;;;;5088492;28;20101;-76
2021/12/14 10:34:11;;;;;;;14.65;8.52;;;16.90;81.90;;;;;;5093199;28;20063;-76
2021/12/14 10:36:42;;;;;;;18.85;8.82;;;16.90;81.60;;;;;;5082318;28;20017;-75
2021/12/14 10:44:32;;;;;;;15.30;9.93;;;16.90;81.00;;;;;;5079803;28;20204;-72
2021/12/14 10:46:59;;;;;;;18.42;14.45;;;16.90;81.30;;;;;;5083657;28;20023;-72
2021/12/14 10:49:27;;;;;;;18.67;14.45;;;17.00;81.40;;;;;;5090608;28;20405;-72
2021/12/14 10:51:59;;;;;;;22.40;15.40;;;16.80;81.00;;;;;;5080476;28;20421;-69
2021/12/14 10:54:27;;;;;;;21.20;13.00;;;16.80;81.10;;;;;;5087182;28;20040;-69
2021/12/14 10:56:57;;;;;;;19.20;14.88;;;16.80;81.30;;;;;;5083927;28;20028;-70
2021/12/14 10:59:30;;;;;;;15.57;10.85;;;16.90;81.40;;;;;;5092334;28;20165;-70
2021/12/14 11:01:56;;;;;;;14.18;11.98;;;16.90;81.80;;;;;;5095184;28;20020;-71
2021/12/14 11:04:53;;;;;;;21.85;17.77;;;16.90;82.30;;;;;;5093893;28;20032;-74
2021/12/14 11:07:24;;;;;;;20.13;10.07;;;16.90;81.50;;;;;;5090124;28;20058;-73
2021/12/14 11:09:55;;;;;;;17.98;12.43;;;17.00;82.20;;;;;;5083837;28;20119;-66
2021/12/14 11:12:24;;;;;;;21.00;14.82;;;16.90;82.00;;;;;;5086289;28;20537;-69
2021/12/14 11:14:56;;;;;;;17.83;8.32;;;17.00;82.10;;;;;;5082500;28;20044;-74
2021/12/14 11:20:11;;;;;;;15.38;8.48;;;17.10;83.00;;;;;;5077651;28;20562;-75
2021/12/14 11:22:49;;;;;;;14.00;6.68;;;17.20;82.60;;;;;;5076904;28;20059;-75
2021/12/14 11:25:20;;;;;;;20.00;14.52;;;17.30;82.70;;;;;;5080913;28;20058;-74
2021/12/14 11:28:19;;;;;;;15.43;8.77;;;17.20;81.80;;;;;;5078579;28;20492;-76
2021/12/14 11:30:55;;;;;;;11.70;7.88;;;17.40;82.60;;;;;;5073155;28;20036;-74
2021/12/14 11:33:26;;;;;;;17.70;10.32;;;17.30;82.10;;;;;;5080114;28;20028;-74
2021/12/14 11:35:59;;;;;;;11.32;7.53;;;17.30;81.80;;;;;;5081307;28;20020;-73
2021/12/14 11:38:42;;;;;;;14.10;6.40;;;17.40;82.60;;;;;;5080707;28;20742;-72
2021/12/14 11:41:23;;;;;;;20.75;13.25;;;17.40;82.10;;;;;;5079441;28;20481;-72
2021/12/14 11:43:56;;;;;;;18.90;12.48;;;17.40;81.30;;;;;;5076191;28;20029;-72
2021/12/14 11:46:23;;;;;;;16.48;8.57;;;17.40;81.20;;;;;;5083895;28;20028;-73
2021/12/14 11:48:48;;;;;;;13.75;8.30;;;17.40;81.60;;;;;;5086311;28;20024;-72
2021/12/14 11:51:15;;;;;;;10.43;6.22;;;17.40;81.60;;;;;;5088970;28;20024;-72
2021/12/14 11:53:50;;;;;;;14.35;9.15;;;17.50;82.00;;;;;;5090489;28;20158;-72
2021/12/14 11:56:20;;;;;;;14.85;8.65;;;17.50;81.90;;;;;;5094166;28;20024;-71
2021/12/14 11:58:51;;;;;;;12.35;7.25;;;17.60;82.20;;;;;;5094538;28;20430;-72
2021/12/14 12:01:25;;;;;;;17.95;10.38;;;17.60;82.40;;;;;;5084368;28;20058;-72
2021/12/14 12:04:00;;;;;;;13.07;8.73;;;17.50;82.10;;;;;;5093413;28;20396;-72
2021/12/14 12:09:28;;;;;;;13.30;6.05;;;17.50;82.40;;;;;;5087704;28;20632;-76
2021/12/14 12:11:57;;;;;;;12.70;9.57;;;17.60;82.40;;;;;;5075267;28;20504;-70
2021/12/14 12:14:31;;;;;;;12.30;6.72;;;17.60;82.40;;;;;;5091839;28;20046;-72
2021/12/14 12:17:16;;;;;;;17.10;5.50;;;17.60;82.90;;;;;;5092933;28;20013;-77
2021/12/14 12:19:53;;;;;;;17.00;7.88;;;17.70;83.40;;;;;;5074539;28;20405;-77
2021/12/14 12:22:21;;;;;;;12.43;4.97;;;17.70;83.30;;;;;;5082155;28;20145;-76
2021/12/14 12:24:53;;;;;;;19.88;8.65;;;17.80;83.80;;;;;;5075980;28;20032;-76
2021/12/14 12:27:35;;;;;;;12.60;6.97;;;17.70;83.30;;;;;;5084145;28;20481;-75
2021/12/14 12:30:31;;;;;;;9.35;4.55;;;17.70;83.70;;;;;;5071437;28;20509;-76
2021/12/14 12:33:01;;;;;;;12.80;8.50;;;17.80;84.60;;;;;;5082315;28;20161;-76
2021/12/14 12:35:39;;;;;;;16.17;10.75;;;17.80;84.30;;;;;;5081833;28;20021;-73
2021/12/14 12:38:37;;;;;;;18.55;6.30;;;17.80;83.90;;;;;;5091580;28;20035;-75
2021/12/14 12:41:03;;;;;;;15.23;7.25;;;17.80;85.00;;;;;;5083860;28;20036;-75
2021/12/14 12:43:58;;;;;;;18.15;11.13;;;17.90;84.50;;;;;;5090793;28;20028;-76
2021/12/14 12:46:29;;;;;;;18.85;12.88;;;17.80;83.70;;;;;;5086134;28;20089;-74
2021/12/14 12:49:04;;;;;;;11.10;6.80;;;17.80;83.70;;;;;;5088066;28;20089;-75
2021/12/14 12:51:45;;;;;;;13.90;5.28;;;17.80;84.80;;;;;;5073077;28;20031;-75
2021/12/14 12:54:37;;;;;;;14.00;4.80;;;17.90;85.80;;;;;;5074178;28;20039;-75
2021/12/14 12:57:12;;;;;;;10.82;6.63;;;17.90;85.10;;;;;;5086454;28;20473;-75
2021/12/14 12:59:50;;;;;;;17.05;5.20;;;17.90;84.80;;;;;;5082041;28;20078;-76
2021/12/14 13:02:20;;;;;;;11.80;8.93;;;17.90;84.90;;;;;;5074893;28;20036;-75
2021/12/14 13:04:51;;;;;;;16.42;12.85;;;17.90;84.60;;;;;;5093593;28;20023;-75
2021/12/14 13:07:16;;;;;;;15.27;7.70;;;17.90;83.70;;;;;;5086215;28;20032;-71
2021/12/14 13:10:06;;;;;;;9.55;6.65;;;17.90;84.10;;;;;;5087598;28;20377;-72
2021/12/14 13:12:44;;;;;;;9.55;5.72;;;17.80;84.30;;;;;;5070454;28;20040;-72
2021/12/14 13:16:00;;;;;;;8.27;5.68;;;18.00;84.20;;;;;;5071271;28;20409;-71
2021/12/14 13:18:37;;;;;;;8.32;5.18;;;18.00;84.30;;;;;;5027666;28;20028;-70
2021/12/14 13:21:33;;;;;;;10.07;7.30;;;18.10;84.20;;;;;;5077342;28;20035;-73
2021/12/14 13:24:14;;;;;;;17.58;12.55;;;18.00;83.80;;;;;;5077073;28;20023;-72
2021/12/14 13:27:02;;;;;;;17.30;15.50;;;18.00;83.40;;;;;;5087588;28;20072;-70
2021/12/14 13:29:45;;;;;;;14.20;12.25;;;17.90;82.80;;;;;;5089311;28;20381;-73
2021/12/14 13:32:35;;;;;;;14.38;9.20;;;18.00;83.00;;;;;;5084542;28;20021;-73
2021/12/14 13:35:00;;;;;;;13.32;6.90;;;18.00;84.10;;;;;;5086609;28;20029;-71
2021/12/14 13:37:38;;;;;;;13.00;7.45;;;18.00;84.20;;;;;;5081639;28;20077;-71
2021/12/14 13:40:28;;;;;;;11.82;6.32;;;18.00;83.90;;;;;;5083625;28;20027;-73
2021/12/14 13:42:59;;;;;;;15.95;11.20;;;18.00;83.50;;;;;;5086751;28;20512;-72
2021/12/14 13:45:35;;;;;;;11.20;9.53;;;18.00;82.70;;;;;;5084237;28;20101;-73